sensor_id;sensor_type;location;lat;lon;timestamp;temperature;humidity
11597;DHT22;5854;48.072;16.286;2023-03-20T00:01:18;8.40;48.40
11597;DHT22;5854;48.072;16.286;2023-03-20T00:03:47;8.40;48.30
11597;DHT22;5854;48.072;16.286;2023-03-20T00:06:14;8.40;48.20
11597;DHT22;5854;48.072;16.286;2023-03-20T00:08:42;8.30;48.60
11597;DHT22;5854;48.072;16.286;2023-03-20T00:11:24;8.40;48.30
11597;DHT22;5854;48.072;16.286;2023-03-20T00:13:57;8.30;49.80
11597;DHT22;5854;48.072;16.286;2023-03-20T00:16:29;8.30;49.40
11597;DHT22;5854;48.072;16.286;2023-03-20T00:18:57;8.30;48.70
11597;DHT22;5854;48.072;16.286;2023-03-20T00:21:25;8.30;49.20
11597;DHT22;5854;48.072;16.286;2023-03-20T00:23:52;8.20;50.00
11597;DHT22;5854;48.072;16.286;2023-03-20T00:26:24;8.30;48.60
11597;DHT22;5854;48.072;16.286;2023-03-20T00:28:52;8.20;49.10
11597;DHT22;5854;48.072;16.286;2023-03-20T00:31:24;8.20;49.70
11597;DHT22;5854;48.072;16.286;2023-03-20T00:33:52;8.10;50.90
11597;DHT22;5854;48.072;16.286;2023-03-20T00:36:22;8.10;53.10
11597;DHT22;5854;48.072;16.286;2023-03-20T00:38:49;8.10;49.20
11597;DHT22;5854;48.072;16.286;2023-03-20T00:41:23;8.00;51.30
11597;DHT22;5854;48.072;16.286;2023-03-20T00:43:55;8.10;54.30
11597;DHT22;5854;48.072;16.286;2023-03-20T00:46:25;8.00;49.90
11597;DHT22;5854;48.072;16.286;2023-03-20T00:48:53;8.00;50.10
11597;DHT22;5854;48.072;16.286;2023-03-20T00:51:21;8.10;50.30
11597;DHT22;5854;48.072;16.286;2023-03-20T00:53:48;8.10;49.50
11597;DHT22;5854;48.072;16.286;2023-03-20T00:56:31;8.10;49.70
11597;DHT22;5854;48.072;16.286;2023-03-20T00:59:00;8.10;48.90
11597;DHT22;5854;48.072;16.286;2023-03-20T01:01:30;8.00;53.70
11597;DHT22;5854;48.072;16.286;2023-03-20T01:03:57;8.00;49.80
11597;DHT22;5854;48.072;16.286;2023-03-20T01:06:24;7.90;49.90
11597;DHT22;5854;48.072;16.286;2023-03-20T01:08:53;8.00;53.40
11597;DHT22;5854;48.072;16.286;2023-03-20T01:11:23;7.90;51.80
11597;DHT22;5854;48.072;16.286;2023-03-20T01:13:50;7.90;54.30
11597;DHT22;5854;48.072;16.286;2023-03-20T01:16:20;7.80;50.40
11597;DHT22;5854;48.072;16.286;2023-03-20T01:18:50;7.90;52.90
11597;DHT22;5854;48.072;16.286;2023-03-20T01:21:18;7.90;50.40
11597;DHT22;5854;48.072;16.286;2023-03-20T01:23:46;7.90;52.00
11597;DHT22;5854;48.072;16.286;2023-03-20T01:26:26;7.80;53.80
11597;DHT22;5854;48.072;16.286;2023-03-20T01:28:57;7.80;52.30
11597;DHT22;5854;48.072;16.286;2023-03-20T01:31:24;7.90;51.90
11597;DHT22;5854;48.072;16.286;2023-03-20T01:33:53;7.80;50.20
11597;DHT22;5854;48.072;16.286;2023-03-20T01:36:21;7.80;54.10
11597;DHT22;5854;48.072;16.286;2023-03-20T01:38:53;7.70;50.50
11597;DHT22;5854;48.072;16.286;2023-03-20T01:41:22;7.70;51.00
11597;DHT22;5854;48.072;16.286;2023-03-20T01:43:51;7.80;50.90
11597;DHT22;5854;48.072;16.286;2023-03-20T01:46:22;7.60;53.60
11597;DHT22;5854;48.072;16.286;2023-03-20T01:49:06;7.70;50.70
11597;DHT22;5854;48.072;16.286;2023-03-20T01:51:34;7.70;49.90
11597;DHT22;5854;48.072;16.286;2023-03-20T01:54:06;7.80;52.10
11597;DHT22;5854;48.072;16.286;2023-03-20T01:56:39;7.70;52.70
11597;DHT22;5854;48.072;16.286;2023-03-20T01:59:11;7.60;54.90
11597;DHT22;5854;48.072;16.286;2023-03-20T02:01:41;7.50;55.40
11597;DHT22;5854;48.072;16.286;2023-03-20T02:04:10;7.40;59.30
11597;DHT22;5854;48.072;16.286;2023-03-20T02:06:38;7.30;60.80
11597;DHT22;5854;48.072;16.286;2023-03-20T02:09:06;7.40;60.30
11597;DHT22;5854;48.072;16.286;2023-03-20T02:11:36;7.30;59.20
11597;DHT22;5854;48.072;16.286;2023-03-20T02:14:04;7.40;55.50
11597;DHT22;5854;48.072;16.286;2023-03-20T02:16:31;7.50;53.80
11597;DHT22;5854;48.072;16.286;2023-03-20T02:18:58;7.50;56.50
11597;DHT22;5854;48.072;16.286;2023-03-20T02:28:23;7.50;58.10
11597;DHT22;5854;48.072;16.286;2023-03-20T02:31:21;7.40;57.10
11597;DHT22;5854;48.072;16.286;2023-03-20T02:34:21;7.50;52.30
11597;DHT22;5854;48.072;16.286;2023-03-20T02:37:42;7.50;55.50
11597;DHT22;5854;48.072;16.286;2023-03-20T02:40:33;7.50;58.30
11597;DHT22;5854;48.072;16.286;2023-03-20T02:43:10;7.50;54.50
11597;DHT22;5854;48.072;16.286;2023-03-20T02:45:48;7.50;58.50
11597;DHT22;5854;48.072;16.286;2023-03-20T02:48:32;7.40;58.80
11597;DHT22;5854;48.072;16.286;2023-03-20T02:51:10;7.40;63.80
11597;DHT22;5854;48.072;16.286;2023-03-20T02:53:48;7.40;62.00
11597;DHT22;5854;48.072;16.286;2023-03-20T02:56:22;7.30;60.70
11597;DHT22;5854;48.072;16.286;2023-03-20T02:58:56;7.30;56.00
11597;DHT22;5854;48.072;16.286;2023-03-20T03:01:31;7.40;58.80
11597;DHT22;5854;48.072;16.286;2023-03-20T03:04:04;7.40;60.10
11597;DHT22;5854;48.072;16.286;2023-03-20T03:06:37;7.30;59.30
11597;DHT22;5854;48.072;16.286;2023-03-20T03:09:10;7.30;56.40
11597;DHT22;5854;48.072;16.286;2023-03-20T03:11:41;7.40;56.80
11597;DHT22;5854;48.072;16.286;2023-03-20T03:14:16;7.40;60.90
11597;DHT22;5854;48.072;16.286;2023-03-20T03:16:46;7.40;60.80
11597;DHT22;5854;48.072;16.286;2023-03-20T03:19:17;7.30;54.80
11597;DHT22;5854;48.072;16.286;2023-03-20T03:21:48;7.30;54.50
11597;DHT22;5854;48.072;16.286;2023-03-20T03:24:26;7.40;59.50
11597;DHT22;5854;48.072;16.286;2023-03-20T03:26:55;7.30;58.90
11597;DHT22;5854;48.072;16.286;2023-03-20T03:29:25;7.30;54.70
11597;DHT22;5854;48.072;16.286;2023-03-20T03:31:55;7.30;54.70
11597;DHT22;5854;48.072;16.286;2023-03-20T03:34:22;7.30;54.30
11597;DHT22;5854;48.072;16.286;2023-03-20T03:36:53;7.40;52.60
11597;DHT22;5854;48.072;16.286;2023-03-20T03:39:34;7.30;56.10
11597;DHT22;5854;48.072;16.286;2023-03-20T03:42:08;7.30;55.90
11597;DHT22;5854;48.072;16.286;2023-03-20T03:44:43;7.30;57.90
11597;DHT22;5854;48.072;16.286;2023-03-20T03:47:17;7.20;59.50
11597;DHT22;5854;48.072;16.286;2023-03-20T03:49:49;7.10;58.50
11597;DHT22;5854;48.072;16.286;2023-03-20T03:52:21;7.00;57.30
11597;DHT22;5854;48.072;16.286;2023-03-20T03:54:53;7.10;58.10
11597;DHT22;5854;48.072;16.286;2023-03-20T03:57:26;7.00;58.10
11597;DHT22;5854;48.072;16.286;2023-03-20T03:59:56;7.00;56.90
11597;DHT22;5854;48.072;16.286;2023-03-20T04:02:24;7.00;57.70
11597;DHT22;5854;48.072;16.286;2023-03-20T04:04:52;7.00;57.00
11597;DHT22;5854;48.072;16.286;2023-03-20T04:07:20;7.10;62.30
11597;DHT22;5854;48.072;16.286;2023-03-20T04:09:53;7.00;61.90
11597;DHT22;5854;48.072;16.286;2023-03-20T04:12:38;6.90;59.10
11597;DHT22;5854;48.072;16.286;2023-03-20T04:15:06;6.90;55.80
11597;DHT22;5854;48.072;16.286;2023-03-20T04:17:34;7.00;58.20
11597;DHT22;5854;48.072;16.286;2023-03-20T04:20:02;7.00;60.00
11597;DHT22;5854;48.072;16.286;2023-03-20T04:22:29;7.00;57.10
11597;DHT22;5854;48.072;16.286;2023-03-20T04:25:00;7.30;67.90
11597;DHT22;5854;48.072;16.286;2023-03-20T04:27:28;7.50;62.30
11597;DHT22;5854;48.072;16.286;2023-03-20T04:29:55;7.70;57.10
11597;DHT22;5854;48.072;16.286;2023-03-20T04:32:22;7.80;68.80
11597;DHT22;5854;48.072;16.286;2023-03-20T04:34:52;8.00;66.20
11597;DHT22;5854;48.072;16.286;2023-03-20T04:37:19;8.20;66.50
11597;DHT22;5854;48.072;16.286;2023-03-20T04:39:46;8.30;64.50
11597;DHT22;5854;48.072;16.286;2023-03-20T04:42:14;8.40;67.60
11597;DHT22;5854;48.072;16.286;2023-03-20T04:44:41;8.30;64.70
11597;DHT22;5854;48.072;16.286;2023-03-20T04:47:08;8.30;66.00
11597;DHT22;5854;48.072;16.286;2023-03-20T04:49:35;8.20;62.90
11597;DHT22;5854;48.072;16.286;2023-03-20T04:52:03;8.10;70.60
11597;DHT22;5854;48.072;16.286;2023-03-20T04:54:30;8.00;69.90
11597;DHT22;5854;48.072;16.286;2023-03-20T04:56:57;8.10;64.40
11597;DHT22;5854;48.072;16.286;2023-03-20T04:59:25;8.20;71.60
11597;DHT22;5854;48.072;16.286;2023-03-20T05:01:52;8.30;66.30
11597;DHT22;5854;48.072;16.286;2023-03-20T05:04:19;8.50;71.50
11597;DHT22;5854;48.072;16.286;2023-03-20T05:06:46;8.60;65.30
11597;DHT22;5854;48.072;16.286;2023-03-20T05:09:14;8.70;60.20
11597;DHT22;5854;48.072;16.286;2023-03-20T05:11:41;8.70;65.30
11597;DHT22;5854;48.072;16.286;2023-03-20T05:14:08;8.70;58.10
11597;DHT22;5854;48.072;16.286;2023-03-20T05:16:38;8.70;62.20
11597;DHT22;5854;48.072;16.286;2023-03-20T05:19:05;8.60;68.20
11597;DHT22;5854;48.072;16.286;2023-03-20T05:21:32;8.60;63.50
11597;DHT22;5854;48.072;16.286;2023-03-20T05:23:59;8.50;65.00
11597;DHT22;5854;48.072;16.286;2023-03-20T05:26:27;8.70;61.00
11597;DHT22;5854;48.072;16.286;2023-03-20T05:28:54;8.70;67.10
11597;DHT22;5854;48.072;16.286;2023-03-20T05:31:21;8.70;68.60
11597;DHT22;5854;48.072;16.286;2023-03-20T05:33:49;8.80;72.40
11597;DHT22;5854;48.072;16.286;2023-03-20T05:36:16;8.80;69.80
11597;DHT22;5854;48.072;16.286;2023-03-20T05:38:43;8.90;68.90
11597;DHT22;5854;48.072;16.286;2023-03-20T05:41:10;8.90;68.90
11597;DHT22;5854;48.072;16.286;2023-03-20T05:43:37;9.10;67.80
11597;DHT22;5854;48.072;16.286;2023-03-20T05:46:05;9.70;73.80
11597;DHT22;5854;48.072;16.286;2023-03-20T05:48:32;10.10;71.40
11597;DHT22;5854;48.072;16.286;2023-03-20T05:51:00;10.50;67.30
11597;DHT22;5854;48.072;16.286;2023-03-20T05:53:27;10.60;64.20
11597;DHT22;5854;48.072;16.286;2023-03-20T05:55:54;10.80;65.20
11597;DHT22;5854;48.072;16.286;2023-03-20T05:58:22;10.50;62.40
11597;DHT22;5854;48.072;16.286;2023-03-20T06:00:49;10.30;63.30
11597;DHT22;5854;48.072;16.286;2023-03-20T06:03:16;10.10;55.10
11597;DHT22;5854;48.072;16.286;2023-03-20T06:05:43;10.10;58.40
11597;DHT22;5854;48.072;16.286;2023-03-20T06:08:12;10.20;64.50
11597;DHT22;5854;48.072;16.286;2023-03-20T06:10:40;10.30;54.90
11597;DHT22;5854;48.072;16.286;2023-03-20T06:13:07;10.40;64.40
11597;DHT22;5854;48.072;16.286;2023-03-20T06:15:34;10.50;57.80
11597;DHT22;5854;48.072;16.286;2023-03-20T06:18:01;10.60;62.90
11597;DHT22;5854;48.072;16.286;2023-03-20T06:20:28;11.10;62.40
11597;DHT22;5854;48.072;16.286;2023-03-20T06:22:56;11.00;61.40
11597;DHT22;5854;48.072;16.286;2023-03-20T06:25:24;11.00;55.40
11597;DHT22;5854;48.072;16.286;2023-03-20T06:27:51;11.00;56.30
11597;DHT22;5854;48.072;16.286;2023-03-20T06:30:19;10.90;53.90
11597;DHT22;5854;48.072;16.286;2023-03-20T06:32:46;11.10;56.40
11597;DHT22;5854;48.072;16.286;2023-03-20T06:35:13;11.30;57.40
11597;DHT22;5854;48.072;16.286;2023-03-20T06:37:40;11.70;52.20
11597;DHT22;5854;48.072;16.286;2023-03-20T06:40:08;12.50;52.70
11597;DHT22;5854;48.072;16.286;2023-03-20T06:42:37;12.60;54.40
11597;DHT22;5854;48.072;16.286;2023-03-20T06:45:05;12.80;56.90
11597;DHT22;5854;48.072;16.286;2023-03-20T06:47:33;12.80;55.40
11597;DHT22;5854;48.072;16.286;2023-03-20T06:50:00;12.40;47.60
11597;DHT22;5854;48.072;16.286;2023-03-20T06:52:27;12.50;51.70
11597;DHT22;5854;48.072;16.286;2023-03-20T06:54:54;12.40;53.40
11597;DHT22;5854;48.072;16.286;2023-03-20T06:57:22;12.40;44.50
11597;DHT22;5854;48.072;16.286;2023-03-20T06:59:51;12.80;52.10
11597;DHT22;5854;48.072;16.286;2023-03-20T07:02:18;13.20;48.40
11597;DHT22;5854;48.072;16.286;2023-03-20T07:04:45;13.30;52.80
11597;DHT22;5854;48.072;16.286;2023-03-20T07:07:12;13.20;52.70
11597;DHT22;5854;48.072;16.286;2023-03-20T07:09:39;13.10;52.30
11597;DHT22;5854;48.072;16.286;2023-03-20T07:12:10;13.30;55.70
11597;DHT22;5854;48.072;16.286;2023-03-20T07:14:39;13.30;54.00
11597;DHT22;5854;48.072;16.286;2023-03-20T07:17:09;12.90;53.80
11597;DHT22;5854;48.072;16.286;2023-03-20T07:19:36;13.10;50.30
11597;DHT22;5854;48.072;16.286;2023-03-20T07:22:05;13.50;55.20
11597;DHT22;5854;48.072;16.286;2023-03-20T07:24:33;13.40;52.20
11597;DHT22;5854;48.072;16.286;2023-03-20T07:27:00;13.50;53.00
11597;DHT22;5854;48.072;16.286;2023-03-20T07:29:27;13.60;48.80
11597;DHT22;5854;48.072;16.286;2023-03-20T07:31:54;14.30;52.10
11597;DHT22;5854;48.072;16.286;2023-03-20T07:34:23;15.10;45.80
11597;DHT22;5854;48.072;16.286;2023-03-20T07:36:50;15.20;40.70
11597;DHT22;5854;48.072;16.286;2023-03-20T07:39:17;15.00;45.00
11597;DHT22;5854;48.072;16.286;2023-03-20T07:41:44;14.80;40.30
11597;DHT22;5854;48.072;16.286;2023-03-20T07:44:11;15.00;42.30
11597;DHT22;5854;48.072;16.286;2023-03-20T07:46:39;15.40;45.10
11597;DHT22;5854;48.072;16.286;2023-03-20T07:49:06;15.70;46.30
11597;DHT22;5854;48.072;16.286;2023-03-20T07:51:34;16.10;45.00
11597;DHT22;5854;48.072;16.286;2023-03-20T07:54:03;16.20;44.50
11597;DHT22;5854;48.072;16.286;2023-03-20T07:56:30;15.10;44.00
11597;DHT22;5854;48.072;16.286;2023-03-20T07:58:57;14.50;46.70
11597;DHT22;5854;48.072;16.286;2023-03-20T08:01:24;14.30;49.20
11597;DHT22;5854;48.072;16.286;2023-03-20T08:03:52;14.10;45.00
11597;DHT22;5854;48.072;16.286;2023-03-20T08:06:19;14.10;50.90
11597;DHT22;5854;48.072;16.286;2023-03-20T08:08:47;14.40;50.10
11597;DHT22;5854;48.072;16.286;2023-03-20T08:11:17;14.70;48.90
11597;DHT22;5854;48.072;16.286;2023-03-20T08:13:44;14.30;45.30
11597;DHT22;5854;48.072;16.286;2023-03-20T08:16:11;13.70;41.00
11597;DHT22;5854;48.072;16.286;2023-03-20T08:18:39;13.50;47.00
11597;DHT22;5854;48.072;16.286;2023-03-20T08:21:07;13.70;50.20
11597;DHT22;5854;48.072;16.286;2023-03-20T08:23:35;14.50;47.50
11597;DHT22;5854;48.072;16.286;2023-03-20T08:26:03;14.60;50.20
11597;DHT22;5854;48.072;16.286;2023-03-20T08:28:30;14.30;43.40
11597;DHT22;5854;48.072;16.286;2023-03-20T08:30:57;14.00;48.30
11597;DHT22;5854;48.072;16.286;2023-03-20T08:33:24;13.90;45.20
11597;DHT22;5854;48.072;16.286;2023-03-20T08:35:55;13.70;49.40
11597;DHT22;5854;48.072;16.286;2023-03-20T08:38:23;13.70;47.30
11597;DHT22;5854;48.072;16.286;2023-03-20T08:40:51;13.50;52.40
11597;DHT22;5854;48.072;16.286;2023-03-20T08:43:20;14.00;49.00
11597;DHT22;5854;48.072;16.286;2023-03-20T08:45:48;14.00;53.80
11597;DHT22;5854;48.072;16.286;2023-03-20T08:48:15;14.00;43.40
11597;DHT22;5854;48.072;16.286;2023-03-20T08:50:42;14.10;42.60
11597;DHT22;5854;48.072;16.286;2023-03-20T08:53:09;14.20;48.00
11597;DHT22;5854;48.072;16.286;2023-03-20T08:55:36;14.00;47.20
11597;DHT22;5854;48.072;16.286;2023-03-20T08:58:03;13.90;42.70
11597;DHT22;5854;48.072;16.286;2023-03-20T09:00:32;14.00;50.70
11597;DHT22;5854;48.072;16.286;2023-03-20T09:02:59;14.20;46.80
11597;DHT22;5854;48.072;16.286;2023-03-20T09:05:26;14.00;44.60
11597;DHT22;5854;48.072;16.286;2023-03-20T09:07:53;13.80;42.80
11597;DHT22;5854;48.072;16.286;2023-03-20T09:10:20;13.80;43.60
11597;DHT22;5854;48.072;16.286;2023-03-20T09:12:47;14.20;46.30
11597;DHT22;5854;48.072;16.286;2023-03-20T09:15:14;14.00;43.90
11597;DHT22;5854;48.072;16.286;2023-03-20T09:17:42;14.00;45.70
11597;DHT22;5854;48.072;16.286;2023-03-20T09:20:10;14.10;42.10
11597;DHT22;5854;48.072;16.286;2023-03-20T09:22:37;14.00;42.90
11597;DHT22;5854;48.072;16.286;2023-03-20T09:25:06;13.60;50.00
11597;DHT22;5854;48.072;16.286;2023-03-20T09:27:34;14.10;48.00
11597;DHT22;5854;48.072;16.286;2023-03-20T09:30:01;14.20;48.40
11597;DHT22;5854;48.072;16.286;2023-03-20T09:32:28;14.30;45.30
11597;DHT22;5854;48.072;16.286;2023-03-20T09:34:56;14.30;42.50
11597;DHT22;5854;48.072;16.286;2023-03-20T09:37:23;14.00;41.80
11597;DHT22;5854;48.072;16.286;2023-03-20T09:39:50;14.20;45.90
11597;DHT22;5854;48.072;16.286;2023-03-20T09:42:26;14.10;46.90
11597;DHT22;5854;48.072;16.286;2023-03-20T09:45:04;14.10;43.00
11597;DHT22;5854;48.072;16.286;2023-03-20T09:47:44;14.00;46.60
11597;DHT22;5854;48.072;16.286;2023-03-20T09:50:27;14.20;47.20
11597;DHT22;5854;48.072;16.286;2023-03-20T09:53:01;14.40;41.40
11597;DHT22;5854;48.072;16.286;2023-03-20T09:55:34;14.10;42.60
11597;DHT22;5854;48.072;16.286;2023-03-20T09:58:08;14.10;47.10
11597;DHT22;5854;48.072;16.286;2023-03-20T10:00:39;14.10;43.00
11597;DHT22;5854;48.072;16.286;2023-03-20T10:03:16;14.30;44.70
11597;DHT22;5854;48.072;16.286;2023-03-20T10:05:53;14.20;41.00
11597;DHT22;5854;48.072;16.286;2023-03-20T10:08:26;14.50;44.10
11597;DHT22;5854;48.072;16.286;2023-03-20T10:11:05;14.40;44.60
11597;DHT22;5854;48.072;16.286;2023-03-20T10:13:53;14.80;47.20
11597;DHT22;5854;48.072;16.286;2023-03-20T10:16:36;14.80;46.80
11597;DHT22;5854;48.072;16.286;2023-03-20T10:19:20;15.00;43.20
11597;DHT22;5854;48.072;16.286;2023-03-20T10:21:55;15.00;41.10
11597;DHT22;5854;48.072;16.286;2023-03-20T10:24:28;14.90;46.10
11597;DHT22;5854;48.072;16.286;2023-03-20T10:27:01;14.70;42.10
11597;DHT22;5854;48.072;16.286;2023-03-20T10:29:37;14.70;41.70
11597;DHT22;5854;48.072;16.286;2023-03-20T10:32:16;14.80;43.70
11597;DHT22;5854;48.072;16.286;2023-03-20T10:34:55;15.10;44.40
11597;DHT22;5854;48.072;16.286;2023-03-20T10:37:37;15.10;41.60
11597;DHT22;5854;48.072;16.286;2023-03-20T10:40:23;15.10;41.80
11597;DHT22;5854;48.072;16.286;2023-03-20T10:42:54;15.00;46.30
11597;DHT22;5854;48.072;16.286;2023-03-20T10:45:36;15.00;41.60
11597;DHT22;5854;48.072;16.286;2023-03-20T10:48:12;14.70;45.10
11597;DHT22;5854;48.072;16.286;2023-03-20T10:50:45;14.90;46.40
11597;DHT22;5854;48.072;16.286;2023-03-20T10:53:25;14.80;40.60
11597;DHT22;5854;48.072;16.286;2023-03-20T10:55:57;14.70;45.40
11597;DHT22;5854;48.072;16.286;2023-03-20T10:58:30;15.00;43.30
11597;DHT22;5854;48.072;16.286;2023-03-20T11:00:58;15.00;45.30
11597;DHT22;5854;48.072;16.286;2023-03-20T11:03:27;15.00;41.10
11597;DHT22;5854;48.072;16.286;2023-03-20T11:09:11;15.50;42.50
11597;DHT22;5854;48.072;16.286;2023-03-20T11:11:45;15.30;42.10
11597;DHT22;5854;48.072;16.286;2023-03-20T11:14:16;15.50;45.00
11597;DHT22;5854;48.072;16.286;2023-03-20T11:16:46;15.40;41.40
11597;DHT22;5854;48.072;16.286;2023-03-20T11:19:16;15.60;44.10
11597;DHT22;5854;48.072;16.286;2023-03-20T11:21:47;15.80;44.60
11597;DHT22;5854;48.072;16.286;2023-03-20T11:24:25;15.70;40.10
11597;DHT22;5854;48.072;16.286;2023-03-20T11:27:04;15.80;44.30
11597;DHT22;5854;48.072;16.286;2023-03-20T11:29:32;15.70;42.10
11597;DHT22;5854;48.072;16.286;2023-03-20T11:32:07;15.50;42.10
11597;DHT22;5854;48.072;16.286;2023-03-20T11:34:43;15.40;42.70
11597;DHT22;5854;48.072;16.286;2023-03-20T11:37:32;15.20;42.40
11597;DHT22;5854;48.072;16.286;2023-03-20T11:40:12;15.30;43.30
11597;DHT22;5854;48.072;16.286;2023-03-20T11:42:51;15.40;41.30
11597;DHT22;5854;48.072;16.286;2023-03-20T11:45:19;15.30;44.00
11597;DHT22;5854;48.072;16.286;2023-03-20T11:47:49;15.50;45.40
11597;DHT22;5854;48.072;16.286;2023-03-20T11:50:25;15.50;43.90
11597;DHT22;5854;48.072;16.286;2023-03-20T11:52:56;15.80;45.40
11597;DHT22;5854;48.072;16.286;2023-03-20T11:55:27;15.90;44.00
11597;DHT22;5854;48.072;16.286;2023-03-20T11:57:56;15.70;40.60
11597;DHT22;5854;48.072;16.286;2023-03-20T12:00:26;15.70;42.80
11597;DHT22;5854;48.072;16.286;2023-03-20T12:02:55;15.60;41.50
11597;DHT22;5854;48.072;16.286;2023-03-20T12:05:29;15.70;43.60
11597;DHT22;5854;48.072;16.286;2023-03-20T12:08:01;15.60;42.10
11597;DHT22;5854;48.072;16.286;2023-03-20T12:10:34;15.60;42.50
11597;DHT22;5854;48.072;16.286;2023-03-20T12:13:08;15.80;43.30
11597;DHT22;5854;48.072;16.286;2023-03-20T12:15:41;15.80;40.30
11597;DHT22;5854;48.072;16.286;2023-03-20T12:18:11;15.80;42.10
11597;DHT22;5854;48.072;16.286;2023-03-20T12:20:44;16.00;43.80
11597;DHT22;5854;48.072;16.286;2023-03-20T12:23:21;16.20;44.70
11597;DHT22;5854;48.072;16.286;2023-03-20T12:25:57;16.40;42.60
11597;DHT22;5854;48.072;16.286;2023-03-20T12:28:32;16.40;40.60
11597;DHT22;5854;48.072;16.286;2023-03-20T12:31:14;16.50;42.10
11597;DHT22;5854;48.072;16.286;2023-03-20T12:33:49;16.50;42.90
11597;DHT22;5854;48.072;16.286;2023-03-20T12:36:28;16.50;41.80
11597;DHT22;5854;48.072;16.286;2023-03-20T12:38:58;16.50;41.60
11597;DHT22;5854;48.072;16.286;2023-03-20T12:41:29;16.70;40.90
11597;DHT22;5854;48.072;16.286;2023-03-20T12:44:14;16.40;41.60
11597;DHT22;5854;48.072;16.286;2023-03-20T12:46:50;16.30;41.60
11597;DHT22;5854;48.072;16.286;2023-03-20T12:49:35;16.20;41.30
11597;DHT22;5854;48.072;16.286;2023-03-20T12:52:12;16.20;41.80
11597;DHT22;5854;48.072;16.286;2023-03-20T12:55:00;16.50;41.10
11597;DHT22;5854;48.072;16.286;2023-03-20T12:57:38;16.40;39.60
11597;DHT22;5854;48.072;16.286;2023-03-20T13:00:22;16.20;40.40
11597;DHT22;5854;48.072;16.286;2023-03-20T13:03:00;16.10;41.20
11597;DHT22;5854;48.072;16.286;2023-03-20T13:05:40;16.00;40.80
11597;DHT22;5854;48.072;16.286;2023-03-20T13:08:20;16.00;40.90
11597;DHT22;5854;48.072;16.286;2023-03-20T13:11:04;16.10;41.10
11597;DHT22;5854;48.072;16.286;2023-03-20T13:13:45;16.10;40.40
11597;DHT22;5854;48.072;16.286;2023-03-20T13:16:21;16.10;40.50
11597;DHT22;5854;48.072;16.286;2023-03-20T13:18:58;15.90;41.00
11597;DHT22;5854;48.072;16.286;2023-03-20T13:21:32;16.10;41.00
11597;DHT22;5854;48.072;16.286;2023-03-20T13:24:13;15.90;40.50
11597;DHT22;5854;48.072;16.286;2023-03-20T13:26:51;16.20;40.70
11597;DHT22;5854;48.072;16.286;2023-03-20T13:29:29;16.40;40.00
11597;DHT22;5854;48.072;16.286;2023-03-20T13:32:08;16.20;40.10
11597;DHT22;5854;48.072;16.286;2023-03-20T13:34:55;16.20;41.50
11597;DHT22;5854;48.072;16.286;2023-03-20T13:37:33;16.30;40.90
11597;DHT22;5854;48.072;16.286;2023-03-20T13:40:12;16.50;40.50
11597;DHT22;5854;48.072;16.286;2023-03-20T13:42:46;16.50;40.50
11597;DHT22;5854;48.072;16.286;2023-03-20T13:45:35;16.40;40.50
11597;DHT22;5854;48.072;16.286;2023-03-20T13:48:23;16.60;40.20
11597;DHT22;5854;48.072;16.286;2023-03-20T13:50:59;16.70;40.30
11597;DHT22;5854;48.072;16.286;2023-03-20T13:53:38;16.80;39.70
11597;DHT22;5854;48.072;16.286;2023-03-20T13:56:19;17.00;40.30
11597;DHT22;5854;48.072;16.286;2023-03-20T14:02:10;16.90;39.30
11597;DHT22;5854;48.072;16.286;2023-03-20T14:04:46;16.90;39.90
11597;DHT22;5854;48.072;16.286;2023-03-20T14:07:28;16.90;39.90
11597;DHT22;5854;48.072;16.286;2023-03-20T14:09:57;17.00;39.60
11597;DHT22;5854;48.072;16.286;2023-03-20T14:13:02;17.10;41.20
11597;DHT22;5854;48.072;16.286;2023-03-20T14:15:32;17.00;40.40
11597;DHT22;5854;48.072;16.286;2023-03-20T14:18:12;17.00;39.80
11597;DHT22;5854;48.072;16.286;2023-03-20T14:20:42;16.90;40.70
11597;DHT22;5854;48.072;16.286;2023-03-20T14:23:16;17.00;39.90
11597;DHT22;5854;48.072;16.286;2023-03-20T14:25:46;17.00;39.50
11597;DHT22;5854;48.072;16.286;2023-03-20T14:28:24;16.90;40.10
11597;DHT22;5854;48.072;16.286;2023-03-20T14:31:12;16.50;40.20
11597;DHT22;5854;48.072;16.286;2023-03-20T14:33:56;16.50;40.80
11597;DHT22;5854;48.072;16.286;2023-03-20T14:36:43;16.60;41.00
11597;DHT22;5854;48.072;16.286;2023-03-20T14:39:39;16.70;40.90
11597;DHT22;5854;48.072;16.286;2023-03-20T14:42:20;16.70;40.80
11597;DHT22;5854;48.072;16.286;2023-03-20T14:45:19;16.60;41.40
11597;DHT22;5854;48.072;16.286;2023-03-20T14:47:56;16.40;41.60
11597;DHT22;5854;48.072;16.286;2023-03-20T14:50:31;16.40;42.80
11597;DHT22;5854;48.072;16.286;2023-03-20T14:53:09;16.40;42.40
11597;DHT22;5854;48.072;16.286;2023-03-20T14:55:49;16.60;41.90
11597;DHT22;5854;48.072;16.286;2023-03-20T15:01:43;16.50;42.10
11597;DHT22;5854;48.072;16.286;2023-03-20T15:04:25;16.70;42.20
11597;DHT22;5854;48.072;16.286;2023-03-20T15:06:58;16.50;42.10
11597;DHT22;5854;48.072;16.286;2023-03-20T15:09:29;16.60;41.70
11597;DHT22;5854;48.072;16.286;2023-03-20T15:11:58;16.40;41.90
11597;DHT22;5854;48.072;16.286;2023-03-20T15:14:32;16.20;42.40
11597;DHT22;5854;48.072;16.286;2023-03-20T15:17:03;16.20;42.80
11597;DHT22;5854;48.072;16.286;2023-03-20T15:19:31;16.20;43.20
11597;DHT22;5854;48.072;16.286;2023-03-20T15:22:14;16.20;43.30
11597;DHT22;5854;48.072;16.286;2023-03-20T15:24:50;16.20;43.30
11597;DHT22;5854;48.072;16.286;2023-03-20T15:27:18;16.10;42.00
11597;DHT22;5854;48.072;16.286;2023-03-20T15:29:49;16.10;41.90
11597;DHT22;5854;48.072;16.286;2023-03-20T15:32:19;16.00;41.50
11597;DHT22;5854;48.072;16.286;2023-03-20T15:34:48;15.70;42.00
11597;DHT22;5854;48.072;16.286;2023-03-20T15:37:20;15.70;42.50
11597;DHT22;5854;48.072;16.286;2023-03-20T15:39:50;15.80;43.00
11597;DHT22;5854;48.072;16.286;2023-03-20T15:42:22;15.90;42.70
11597;DHT22;5854;48.072;16.286;2023-03-20T15:44:53;15.80;42.70
11597;DHT22;5854;48.072;16.286;2023-03-20T15:47:22;15.80;42.70
11597;DHT22;5854;48.072;16.286;2023-03-20T15:49:52;15.80;42.80
11597;DHT22;5854;48.072;16.286;2023-03-20T15:52:28;15.80;43.00
11597;DHT22;5854;48.072;16.286;2023-03-20T15:54:57;15.70;43.30
11597;DHT22;5854;48.072;16.286;2023-03-20T15:57:32;15.70;42.70
11597;DHT22;5854;48.072;16.286;2023-03-20T16:00:01;15.70;43.00
11597;DHT22;5854;48.072;16.286;2023-03-20T16:02:30;15.70;42.90
11597;DHT22;5854;48.072;16.286;2023-03-20T16:04:57;15.60;42.80
11597;DHT22;5854;48.072;16.286;2023-03-20T16:07:29;15.60;42.90
11597;DHT22;5854;48.072;16.286;2023-03-20T16:09:57;15.60;43.00
11597;DHT22;5854;48.072;16.286;2023-03-20T16:12:25;15.50;42.90
11597;DHT22;5854;48.072;16.286;2023-03-20T16:14:53;15.30;43.20
11597;DHT22;5854;48.072;16.286;2023-03-20T16:17:21;15.10;43.50
11597;DHT22;5854;48.072;16.286;2023-03-20T16:19:49;15.10;43.90
11597;DHT22;5854;48.072;16.286;2023-03-20T16:22:21;15.10;44.40